SBPASBSP

Guest
Details From SBPA - Salgado Filho
To SBSP - Sao Paulo Congonhas
Flight Number -
Tags Generated
Created
Modified
Stats Distance 453 nm / 839 km
Max Altitude 0 ft / 0 m
Waypoints 4
Social Downloads 1
Likes 0
Share VATSIM

Download

Looking for another format? Having issues loading an existing format? Contact us
Advertisement - Login to hide

Notes

Generated

Route

SBPA GLOVE EMB SBSP

ID Type Via Altitude Latitude Longitude Leg Dist Tot Dist Heading (true) Name
O SBPA APT - 0 ft / 0 m -29.99414˚ -51.18327˚ - 0 nm - -
GLOVE FIX - 0 ft / 0 m -26.75117˚ -48.79500˚ 232 nm 232 nm 34° / 32° -
EMB NDB - 0 ft / 0 m -23.85067˚ -46.81633˚ 204 nm 436 nm 32° / 31° EMBUGUACU NDB
O SBSP APT - 0 ft / 0 m -23.62070˚ -46.65829˚ 16 nm 453 nm 32° / 32° -

Altitude Profile

Advertisement - Login to hide

Weather


0- 5 10 15 20 25 30 35+ Temperature / ° C

Clouds and Precipitation
Forecast for 2017-12-12 18:00 UTC. Updated an hour ago

Ground ~20,000 ft ~40,000 ft Winds

SBPA

Details ICAO SBPA (POA)
Name Salgado Filho
Region Brazil
Timezone America/Sao_Paulo (UTC-2.0)
Stats Elevation 11 ft / 3 m (AMSL)
Location -29.994428° -51.171426°
Runways 1
Magnetic Variation 16.877° W

METAR

SBPA 121600Z 09012KT CAVOK 25/15 Q1016

Decode

TAF

Not found

Departure Runways

ID Width Length Bearing (true) Bearing (mag) Surface Threshold Offset Overrun Length
11 138 ft / 42 m 7,487 ft / 2,282 m 91.60° 108.48° Asphalt 0 ft / 0 m 230 ft / 70 m
29 138 ft / 42 m 7,487 ft / 2,282 m 271.59° 288.47° Asphalt 0 ft / 0 m 197 ft / 60 m

SBSP

Details ICAO SBSP (CGH)
Name Sao Paulo Congonhas
Region Brazil
Timezone America/Sao_Paulo (UTC-2.0)
Stats Elevation 2,631 ft / 802 m (AMSL)
Location -23.626693° -46.655377°
Runways 2
Magnetic Variation 21.294° W

METAR

SBSP 121600Z 16014KT 9999 SCT009 OVC013 19/15 Q1020

Decode

TAF

TAF SBSP 120830Z 1212/1312 15010KT 9999 OVC007 TX20/1216Z TN16/1307Z BECMG 1212/1214 9999 BKN015 BECMG 1218/1220 OVC009 BECMG 1222/1224 13005KT OVC007 RMK PHH

Decode

Destination Runways

ID Width Length Bearing (true) Bearing (mag) Surface Threshold Offset Overrun Length
17L 147 ft / 45 m 4,726 ft / 1,441 m 147.28° 168.57° Asphalt 0 ft / 0 m 220 ft / 67 m
17R 147 ft / 45 m 6,406 ft / 1,953 m 147.39° 168.68° Asphalt 413 ft / 126 m 0 ft / 0 m
35L 147 ft / 45 m 6,406 ft / 1,953 m 327.38° 348.67° Asphalt 200 ft / 61 m 0 ft / 0 m
35R 147 ft / 45 m 4,726 ft / 1,441 m 327.28° 348.57° Asphalt 0 ft / 0 m 0 ft / 0 m

Approach Navaids

Runway Type Ident Frequency Range Bearing (true) Bearing (mag) Slope Elevation
17R Localiser ISP 109.30 MHz 18 nm / 33 km 147.03° 168.32° - 2,631 ft / 802 m (AMSL)
17R Glidescope ISP 109.30 MHz 10 nm / 19 km 147.38° 168.68° 2.90° 2,631 ft / 802 m (AMSL)
35L Localiser ICO 110.10 MHz 18 nm / 33 km 328.14° 349.44° - 2,631 ft / 802 m (AMSL)

Popular Alternatives